createdAt,value
2017-11-05T00:02:13.246Z,13.67
2017-11-05T00:04:44.300Z,13.53
2017-11-05T00:07:14.011Z,13.77
2017-11-05T00:09:43.988Z,14.01
2017-11-05T00:12:14.207Z,14.37
2017-11-05T00:14:44.105Z,14.02
2017-11-05T00:17:12.613Z,14.12
2017-11-05T00:19:41.452Z,14.63
2017-11-05T00:22:11.116Z,14.42
2017-11-05T00:24:39.705Z,14.46
2017-11-05T00:27:08.233Z,14.19
2017-11-05T00:29:38.756Z,14.19
2017-11-05T00:32:08.952Z,13.93
2017-11-05T00:34:38.183Z,13.99
2017-11-05T00:37:09.492Z,14.27
2017-11-05T00:39:38.816Z,14.29
2017-11-05T00:42:07.716Z,14.10
2017-11-05T00:44:38.405Z,14.14
2017-11-05T00:47:09.257Z,13.97
2017-11-05T00:49:39.840Z,13.99
2017-11-05T00:52:10.055Z,14.21
2017-11-05T00:54:39.306Z,13.85
2017-11-05T00:57:08.043Z,13.95
2017-11-05T00:59:39.712Z,14.11
2017-11-05T01:02:08.903Z,14.34
2017-11-05T01:04:38.749Z,14.27
2017-11-05T01:07:09.293Z,14.14
2017-11-05T01:09:37.759Z,14.18
2017-11-05T01:12:11.608Z,14.57
2017-11-05T01:14:41.140Z,14.58
2017-11-05T01:17:11.944Z,14.33
2017-11-05T01:19:44.529Z,14.65
2017-11-05T01:22:13.768Z,14.31
2017-11-05T01:24:45.937Z,14.00
2017-11-05T01:27:15.144Z,14.26
2017-11-05T01:29:45.740Z,14.32
2017-11-05T01:32:14.356Z,14.55
2017-11-05T01:34:43.162Z,14.66
2017-11-05T01:37:12.780Z,14.33
2017-11-05T01:39:41.258Z,14.39
2017-11-05T01:42:10.211Z,14.45
2017-11-05T01:44:41.153Z,14.60
2017-11-05T01:47:11.489Z,14.48
2017-11-05T01:49:44.112Z,14.53
2017-11-05T01:52:14.043Z,14.61
2017-11-05T01:54:45.703Z,14.52
2017-11-05T01:57:14.122Z,14.31
2017-11-05T01:59:43.179Z,14.53
2017-11-05T02:02:12.373Z,14.63
2017-11-05T02:04:40.986Z,14.72
2017-11-05T02:07:09.703Z,14.59
2017-11-05T02:09:41.038Z,14.30
2017-11-05T02:12:10.275Z,14.30
2017-11-05T02:14:40.455Z,14.41
2017-11-05T02:17:09.521Z,14.17
2017-11-05T02:19:41.233Z,13.90
2017-11-05T02:22:12.367Z,14.39
2017-11-05T02:24:43.160Z,14.73
2017-11-05T02:27:11.844Z,14.66
2017-11-05T02:29:43.597Z,14.76
2017-11-05T02:32:13.492Z,14.95
2017-11-05T02:34:42.760Z,14.81
2017-11-05T02:37:12.256Z,14.38
2017-11-05T02:39:41.772Z,14.65
2017-11-05T02:42:11.979Z,14.44
2017-11-05T02:44:41.128Z,14.15
2017-11-05T02:47:10.320Z,14.62
2017-11-05T02:49:38.834Z,14.43
2017-11-05T02:52:11.292Z,14.69
2017-11-05T02:54:39.925Z,14.96
2017-11-05T02:57:08.646Z,14.93
2017-11-05T02:59:39.529Z,14.90
2017-11-05T03:02:08.131Z,15.09
2017-11-05T03:04:36.964Z,15.63
2017-11-05T03:07:06.812Z,15.15
2017-11-05T03:09:38.395Z,15.11
2017-11-05T03:12:07.402Z,14.54
2017-11-05T03:14:38.183Z,14.98
2017-11-05T03:17:10.812Z,15.26
2017-11-05T03:19:40.217Z,15.33
2017-11-05T03:22:09.557Z,15.58
2017-11-05T03:24:38.185Z,15.57
2017-11-05T03:27:07.160Z,15.23
2017-11-05T03:29:36.941Z,14.60
2017-11-05T03:32:07.845Z,14.63
2017-11-05T03:34:36.903Z,14.78
2017-11-05T03:37:06.264Z,14.92
2017-11-05T03:39:37.112Z,15.43
2017-11-05T03:42:07.080Z,15.49
2017-11-05T03:44:37.668Z,15.59
2017-11-05T03:47:07.197Z,15.87
2017-11-05T03:49:36.294Z,16.06
2017-11-05T03:52:07.999Z,15.80
2017-11-05T03:54:36.814Z,15.93
2017-11-05T03:57:07.416Z,15.74
2017-11-05T03:59:38.108Z,15.18
2017-11-05T04:02:11.890Z,15.05
2017-11-05T04:04:40.556Z,14.99
2017-11-05T04:07:10.032Z,14.60
2017-11-05T04:09:38.696Z,14.79
2017-11-05T04:12:12.384Z,15.17
2017-11-05T04:14:41.983Z,15.17
2017-11-05T04:17:10.628Z,14.82
2017-11-05T04:19:40.232Z,15.09
2017-11-05T04:22:09.567Z,15.13
2017-11-05T04:24:38.378Z,14.59
2017-11-05T04:27:08.803Z,14.80
2017-11-05T04:29:39.704Z,15.25
2017-11-05T04:32:10.021Z,14.96
2017-11-05T04:34:38.678Z,15.02
2017-11-05T04:37:07.302Z,14.96
2017-11-05T04:42:16.896Z,15.05
2017-11-05T04:44:45.670Z,14.98
2017-11-05T04:47:14.201Z,14.97
2017-11-05T04:49:44.514Z,14.85
2017-11-05T04:52:14.436Z,14.59
2017-11-05T04:54:43.672Z,13.97
2017-11-05T04:57:12.394Z,13.85
2017-11-05T04:59:41.772Z,13.94
2017-11-05T05:02:10.449Z,13.95
2017-11-05T05:04:39.052Z,13.63
2017-11-05T05:07:10.295Z,13.36
2017-11-05T05:09:40.132Z,13.52
2017-11-05T05:12:15.444Z,13.92
2017-11-05T05:14:44.446Z,13.72
2017-11-05T05:17:13.783Z,13.53
2017-11-05T05:19:45.705Z,13.70
2017-11-05T05:22:14.395Z,14.00
2017-11-05T05:24:43.241Z,13.21
2017-11-05T05:27:11.860Z,13.79
2017-11-05T05:29:41.842Z,13.79
2017-11-05T05:32:10.511Z,13.61
2017-11-05T05:34:39.769Z,13.84
2017-11-05T05:37:08.304Z,14.02
2017-11-05T05:39:36.872Z,14.35
2017-11-05T05:42:05.427Z,14.26
2017-11-05T05:44:35.280Z,14.24
2017-11-05T05:47:07.485Z,14.52
2017-11-05T05:49:36.132Z,14.02
2017-11-05T05:52:04.992Z,13.78
2017-11-05T05:54:34.378Z,13.80
2017-11-05T05:57:03.821Z,13.24
2017-11-05T05:59:32.451Z,13.23
2017-11-05T06:02:02.058Z,13.09
2017-11-05T06:04:30.784Z,12.93
2017-11-05T06:06:59.472Z,13.09
2017-11-05T06:09:28.064Z,13.29
2017-11-05T06:11:56.587Z,13.66
2017-11-05T06:14:25.201Z,13.57
2017-11-05T06:16:55.235Z,13.04
2017-11-05T06:19:24.367Z,13.41
2017-11-05T06:21:52.851Z,13.31
2017-11-05T06:24:21.619Z,13.58
2017-11-05T06:26:50.185Z,14.05
2017-11-05T06:29:18.787Z,14.21
